sensor_id;sensor_type;location;lat;lon;timestamp;P1;durP1;ratioP1;P2;durP2;ratioP2
54959;SDS011;40860;51.710;8.736;2023-07-29T00:02:43;2.53;;;1.83;;
54959;SDS011;40860;51.710;8.736;2023-07-29T00:06:47;2.08;;;1.90;;
54959;SDS011;40860;51.710;8.736;2023-07-29T00:10:50;2.70;;;1.88;;
54959;SDS011;40860;51.710;8.736;2023-07-29T00:14:53;2.03;;;1.92;;
54959;SDS011;40860;51.710;8.736;2023-07-29T00:18:57;2.90;;;1.98;;
54959;SDS011;40860;51.710;8.736;2023-07-29T00:23:00;1.90;;;1.70;;
54959;SDS011;40860;51.710;8.736;2023-07-29T00:27:04;1.75;;;1.65;;
54959;SDS011;40860;51.710;8.736;2023-07-29T00:31:07;2.58;;;1.77;;
54959;SDS011;40860;51.710;8.736;2023-07-29T00:35:11;1.77;;;1.67;;
54959;SDS011;40860;51.710;8.736;2023-07-29T00:39:14;1.70;;;1.60;;
54959;SDS011;40860;51.710;8.736;2023-07-29T00:43:17;1.95;;;1.83;;
54959;SDS011;40860;51.710;8.736;2023-07-29T00:47:20;2.15;;;1.73;;
54959;SDS011;40860;51.710;8.736;2023-07-29T00:51:26;4.68;;;1.70;;
54959;SDS011;40860;51.710;8.736;2023-07-29T00:55:30;2.22;;;1.63;;
54959;SDS011;40860;51.710;8.736;2023-07-29T00:59:34;3.00;;;1.90;;
54959;SDS011;40860;51.710;8.736;2023-07-29T01:03:37;3.00;;;1.60;;
54959;SDS011;40860;51.710;8.736;2023-07-29T01:07:44;1.75;;;1.65;;
54959;SDS011;40860;51.710;8.736;2023-07-29T01:11:52;1.63;;;1.52;;
54959;SDS011;40860;51.710;8.736;2023-07-29T01:16:00;2.00;;;1.80;;
54959;SDS011;40860;51.710;8.736;2023-07-29T01:20:11;1.77;;;1.52;;
54959;SDS011;40860;51.710;8.736;2023-07-29T01:24:20;1.70;;;1.60;;
54959;SDS011;40860;51.710;8.736;2023-07-29T01:28:23;1.60;;;1.50;;
54959;SDS011;40860;51.710;8.736;2023-07-29T01:32:28;2.00;;;1.75;;
54959;SDS011;40860;51.710;8.736;2023-07-29T01:36:37;1.38;;;1.27;;
54959;SDS011;40860;51.710;8.736;2023-07-29T01:40:49;1.70;;;1.50;;
54959;SDS011;40860;51.710;8.736;2023-07-29T01:44:54;1.60;;;1.50;;
54959;SDS011;40860;51.710;8.736;2023-07-29T01:48:57;1.65;;;1.55;;
54959;SDS011;40860;51.710;8.736;2023-07-29T01:53:00;2.15;;;1.30;;
54959;SDS011;40860;51.710;8.736;2023-07-29T01:57:04;1.60;;;1.50;;
54959;SDS011;40860;51.710;8.736;2023-07-29T02:01:07;1.58;;;1.40;;
54959;SDS011;40860;51.710;8.736;2023-07-29T02:05:10;2.78;;;1.40;;
54959;SDS011;40860;51.710;8.736;2023-07-29T02:09:13;1.10;;;1.10;;
54959;SDS011;40860;51.710;8.736;2023-07-29T02:13:24;3.03;;;1.20;;
54959;SDS011;40860;51.710;8.736;2023-07-29T02:17:30;1.70;;;1.60;;
54959;SDS011;40860;51.710;8.736;2023-07-29T02:21:36;1.50;;;1.40;;
54959;SDS011;40860;51.710;8.736;2023-07-29T02:25:43;1.52;;;1.42;;
54959;SDS011;40860;51.710;8.736;2023-07-29T02:29:48;1.48;;;1.38;;
54959;SDS011;40860;51.710;8.736;2023-07-29T02:33:51;1.50;;;1.40;;
54959;SDS011;40860;51.710;8.736;2023-07-29T02:37:54;1.70;;;1.60;;
54959;SDS011;40860;51.710;8.736;2023-07-29T02:41:57;2.33;;;1.50;;
54959;SDS011;40860;51.710;8.736;2023-07-29T02:46:01;1.70;;;1.52;;
54959;SDS011;40860;51.710;8.736;2023-07-29T02:50:08;1.88;;;1.60;;
54959;SDS011;40860;51.710;8.736;2023-07-29T02:54:11;1.75;;;1.63;;
54959;SDS011;40860;51.710;8.736;2023-07-29T02:58:14;1.70;;;1.60;;
54959;SDS011;40860;51.710;8.736;2023-07-29T03:02:18;1.73;;;1.63;;
54959;SDS011;40860;51.710;8.736;2023-07-29T03:06:21;1.95;;;1.52;;
54959;SDS011;40860;51.710;8.736;2023-07-29T03:10:24;1.65;;;1.50;;
54959;SDS011;40860;51.710;8.736;2023-07-29T03:14:27;1.85;;;1.75;;
54959;SDS011;40860;51.710;8.736;2023-07-29T03:18:32;2.22;;;1.95;;
54959;SDS011;40860;51.710;8.736;2023-07-29T03:22:34;2.25;;;2.00;;
54959;SDS011;40860;51.710;8.736;2023-07-29T03:26:37;1.92;;;1.73;;
54959;SDS011;40860;51.710;8.736;2023-07-29T03:30:43;2.33;;;1.90;;
54959;SDS011;40860;51.710;8.736;2023-07-29T03:34:47;2.38;;;2.10;;
54959;SDS011;40860;51.710;8.736;2023-07-29T03:38:50;3.47;;;1.90;;
54959;SDS011;40860;51.710;8.736;2023-07-29T03:42:53;2.63;;;2.20;;
54959;SDS011;40860;51.710;8.736;2023-07-29T03:46:56;2.30;;;2.10;;
54959;SDS011;40860;51.710;8.736;2023-07-29T03:51:00;2.08;;;1.98;;
54959;SDS011;40860;51.710;8.736;2023-07-29T03:55:04;2.53;;;1.90;;
54959;SDS011;40860;51.710;8.736;2023-07-29T03:59:07;4.22;;;2.00;;
54959;SDS011;40860;51.710;8.736;2023-07-29T04:03:10;3.08;;;1.83;;
54959;SDS011;40860;51.710;8.736;2023-07-29T04:07:14;3.53;;;2.00;;
54959;SDS011;40860;51.710;8.736;2023-07-29T04:11:17;3.92;;;2.10;;
54959;SDS011;40860;51.710;8.736;2023-07-29T04:15:21;2.13;;;2.00;;
54959;SDS011;40860;51.710;8.736;2023-07-29T04:19:24;3.63;;;2.17;;
54959;SDS011;40860;51.710;8.736;2023-07-29T04:23:28;2.42;;;2.00;;
54959;SDS011;40860;51.710;8.736;2023-07-29T04:27:31;2.60;;;2.40;;
54959;SDS011;40860;51.710;8.736;2023-07-29T04:31:34;2.25;;;1.95;;
54959;SDS011;40860;51.710;8.736;2023-07-29T04:35:37;3.25;;;1.75;;
54959;SDS011;40860;51.710;8.736;2023-07-29T04:39:42;2.15;;;2.00;;
54959;SDS011;40860;51.710;8.736;2023-07-29T04:43:45;3.13;;;2.08;;
54959;SDS011;40860;51.710;8.736;2023-07-29T04:47:48;2.55;;;1.98;;
54959;SDS011;40860;51.710;8.736;2023-07-29T04:51:51;2.97;;;1.50;;
54959;SDS011;40860;51.710;8.736;2023-07-29T04:55:55;4.15;;;1.60;;
54959;SDS011;40860;51.710;8.736;2023-07-29T04:59:58;2.00;;;1.80;;
54959;SDS011;40860;51.710;8.736;2023-07-29T05:04:01;1.75;;;1.65;;
54959;SDS011;40860;51.710;8.736;2023-07-29T05:08:05;1.92;;;1.60;;
54959;SDS011;40860;51.710;8.736;2023-07-29T05:12:09;1.90;;;1.80;;
54959;SDS011;40860;51.710;8.736;2023-07-29T05:16:12;2.05;;;1.83;;
54959;SDS011;40860;51.710;8.736;2023-07-29T05:20:15;1.88;;;1.67;;
54959;SDS011;40860;51.710;8.736;2023-07-29T05:24:18;2.20;;;1.83;;
54959;SDS011;40860;51.710;8.736;2023-07-29T05:28:22;2.17;;;1.60;;
54959;SDS011;40860;51.710;8.736;2023-07-29T05:32:25;2.45;;;1.60;;
54959;SDS011;40860;51.710;8.736;2023-07-29T05:36:28;2.35;;;1.50;;
54959;SDS011;40860;51.710;8.736;2023-07-29T05:40:31;2.90;;;1.70;;
54959;SDS011;40860;51.710;8.736;2023-07-29T05:44:36;1.90;;;1.80;;
54959;SDS011;40860;51.710;8.736;2023-07-29T05:48:39;2.55;;;1.92;;
54959;SDS011;40860;51.710;8.736;2023-07-29T05:52:42;2.13;;;1.88;;
54959;SDS011;40860;51.710;8.736;2023-07-29T05:56:45;2.20;;;1.70;;
54959;SDS011;40860;51.710;8.736;2023-07-29T06:00:50;2.38;;;1.90;;
54959;SDS011;40860;51.710;8.736;2023-07-29T06:04:54;2.20;;;1.60;;
54959;SDS011;40860;51.710;8.736;2023-07-29T06:08:57;2.38;;;1.67;;
54959;SDS011;40860;51.710;8.736;2023-07-29T06:13:00;1.70;;;1.60;;
54959;SDS011;40860;51.710;8.736;2023-07-29T06:17:05;3.47;;;1.63;;
54959;SDS011;40860;51.710;8.736;2023-07-29T06:21:08;1.95;;;1.75;;
54959;SDS011;40860;51.710;8.736;2023-07-29T06:25:13;2.75;;;2.08;;
54959;SDS011;40860;51.710;8.736;2023-07-29T06:29:16;2.28;;;2.17;;
54959;SDS011;40860;51.710;8.736;2023-07-29T06:33:21;2.50;;;1.90;;
54959;SDS011;40860;51.710;8.736;2023-07-29T06:37:24;2.72;;;2.53;;
54959;SDS011;40860;51.710;8.736;2023-07-29T06:41:27;1.80;;;1.70;;
54959;SDS011;40860;51.710;8.736;2023-07-29T06:45:30;2.65;;;1.75;;
54959;SDS011;40860;51.710;8.736;2023-07-29T06:49:34;2.75;;;1.90;;
54959;SDS011;40860;51.710;8.736;2023-07-29T06:53:37;3.95;;;2.55;;
54959;SDS011;40860;51.710;8.736;2023-07-29T06:57:40;2.17;;;1.92;;
54959;SDS011;40860;51.710;8.736;2023-07-29T07:01:42;1.83;;;1.73;;
54959;SDS011;40860;51.710;8.736;2023-07-29T07:05:47;2.35;;;2.20;;
54959;SDS011;40860;51.710;8.736;2023-07-29T07:09:50;2.42;;;2.22;;
54959;SDS011;40860;51.710;8.736;2023-07-29T07:13:53;2.42;;;2.20;;
54959;SDS011;40860;51.710;8.736;2023-07-29T07:17:56;2.67;;;2.47;;
54959;SDS011;40860;51.710;8.736;2023-07-29T07:22:00;2.53;;;2.33;;
54959;SDS011;40860;51.710;8.736;2023-07-29T07:26:04;3.20;;;3.00;;
54959;SDS011;40860;51.710;8.736;2023-07-29T07:30:07;5.20;;;3.72;;
54959;SDS011;40860;51.710;8.736;2023-07-29T07:34:10;4.88;;;4.47;;
54959;SDS011;40860;51.710;8.736;2023-07-29T07:38:15;6.28;;;5.78;;
54959;SDS011;40860;51.710;8.736;2023-07-29T07:42:18;8.20;;;7.43;;
54959;SDS011;40860;51.710;8.736;2023-07-29T07:46:20;9.23;;;8.30;;
54959;SDS011;40860;51.710;8.736;2023-07-29T07:50:23;10.38;;;9.30;;
54959;SDS011;40860;51.710;8.736;2023-07-29T07:54:28;9.50;;;8.70;;
54959;SDS011;40860;51.710;8.736;2023-07-29T07:58:31;10.15;;;9.13;;
54959;SDS011;40860;51.710;8.736;2023-07-29T08:02:34;10.68;;;9.57;;
54959;SDS011;40860;51.710;8.736;2023-07-29T08:06:37;12.73;;;9.88;;
54959;SDS011;40860;51.710;8.736;2023-07-29T08:10:41;10.10;;;9.20;;
54959;SDS011;40860;51.710;8.736;2023-07-29T08:14:44;10.32;;;7.82;;
54959;SDS011;40860;51.710;8.736;2023-07-29T08:18:47;7.78;;;7.07;;
54959;SDS011;40860;51.710;8.736;2023-07-29T08:22:50;8.27;;;7.40;;
54959;SDS011;40860;51.710;8.736;2023-07-29T08:26:54;7.35;;;6.68;;
54959;SDS011;40860;51.710;8.736;2023-07-29T08:30:57;7.55;;;6.68;;
54959;SDS011;40860;51.710;8.736;2023-07-29T08:35:01;7.18;;;6.57;;
54959;SDS011;40860;51.710;8.736;2023-07-29T08:39:04;7.88;;;7.18;;
54959;SDS011;40860;51.710;8.736;2023-07-29T08:43:08;7.60;;;6.93;;
54959;SDS011;40860;51.710;8.736;2023-07-29T08:47:13;8.40;;;7.63;;
54959;SDS011;40860;51.710;8.736;2023-07-29T08:51:16;8.93;;;8.13;;
54959;SDS011;40860;51.710;8.736;2023-07-29T08:55:20;8.45;;;7.75;;
54959;SDS011;40860;51.710;8.736;2023-07-29T08:59:25;9.10;;;8.40;;
54959;SDS011;40860;51.710;8.736;2023-07-29T09:03:29;9.98;;;9.10;;
54959;SDS011;40860;51.710;8.736;2023-07-29T09:07:32;9.60;;;8.68;;
54959;SDS011;40860;51.710;8.736;2023-07-29T09:11:39;8.90;;;8.10;;
54959;SDS011;40860;51.710;8.736;2023-07-29T09:15:43;10.13;;;8.00;;
54959;SDS011;40860;51.710;8.736;2023-07-29T09:19:47;7.97;;;7.25;;
54959;SDS011;40860;51.710;8.736;2023-07-29T09:23:51;6.07;;;5.57;;
54959;SDS011;40860;51.710;8.736;2023-07-29T09:27:56;4.85;;;4.43;;
54959;SDS011;40860;51.710;8.736;2023-07-29T09:36:22;4.70;;;4.30;;
54959;SDS011;40860;51.710;8.736;2023-07-29T09:40:25;4.40;;;4.05;;
54959;SDS011;40860;51.710;8.736;2023-07-29T09:44:28;4.63;;;3.97;;
54959;SDS011;40860;51.710;8.736;2023-07-29T09:48:39;3.42;;;3.08;;
54959;SDS011;40860;51.710;8.736;2023-07-29T09:52:44;3.88;;;3.00;;
54959;SDS011;40860;51.710;8.736;2023-07-29T09:56:49;3.55;;;3.25;;
54959;SDS011;40860;51.710;8.736;2023-07-29T10:00:53;3.80;;;3.25;;
54959;SDS011;40860;51.710;8.736;2023-07-29T10:04:57;3.00;;;2.80;;
54959;SDS011;40860;51.710;8.736;2023-07-29T10:09:01;2.70;;;2.50;;
54959;SDS011;40860;51.710;8.736;2023-07-29T10:13:04;2.10;;;2.00;;
54959;SDS011;40860;51.710;8.736;2023-07-29T10:17:11;2.05;;;1.23;;
54959;SDS011;40860;51.710;8.736;2023-07-29T10:21:16;1.30;;;1.20;;
54959;SDS011;40860;51.710;8.736;2023-07-29T10:25:23;1.17;;;1.17;;
54959;SDS011;40860;51.710;8.736;2023-07-29T10:29:30;0.98;;;0.98;;
54959;SDS011;40860;51.710;8.736;2023-07-29T10:33:35;2.40;;;1.90;;
54959;SDS011;40860;51.710;8.736;2023-07-29T10:37:41;2.50;;;1.30;;
54959;SDS011;40860;51.710;8.736;2023-07-29T10:41:56;1.10;;;1.10;;
54959;SDS011;40860;51.710;8.736;2023-07-29T10:46:14;1.50;;;1.40;;
54959;SDS011;40860;51.710;8.736;2023-07-29T10:50:19;1.80;;;0.90;;
54959;SDS011;40860;51.710;8.736;2023-07-29T10:54:24;1.98;;;1.10;;
54959;SDS011;40860;51.710;8.736;2023-07-29T10:58:28;2.15;;;0.93;;
54959;SDS011;40860;51.710;8.736;2023-07-29T11:02:33;1.30;;;1.20;;
54959;SDS011;40860;51.710;8.736;2023-07-29T11:11:08;2.35;;;1.17;;
54959;SDS011;40860;51.710;8.736;2023-07-29T11:15:15;1.25;;;1.15;;
54959;SDS011;40860;51.710;8.736;2023-07-29T11:19:25;1.38;;;1.30;;
54959;SDS011;40860;51.710;8.736;2023-07-29T11:23:32;1.17;;;0.95;;
54959;SDS011;40860;51.710;8.736;2023-07-29T11:27:37;1.13;;;1.10;;
54959;SDS011;40860;51.710;8.736;2023-07-29T11:31:40;1.63;;;1.40;;
54959;SDS011;40860;51.710;8.736;2023-07-29T11:35:43;2.28;;;1.13;;
54959;SDS011;40860;51.710;8.736;2023-07-29T11:39:46;2.55;;;1.10;;
54959;SDS011;40860;51.710;8.736;2023-07-29T11:43:50;1.42;;;1.35;;
54959;SDS011;40860;51.710;8.736;2023-07-29T11:47:53;1.60;;;1.20;;
54959;SDS011;40860;51.710;8.736;2023-07-29T11:51:56;1.33;;;1.23;;
54959;SDS011;40860;51.710;8.736;2023-07-29T11:55:59;2.20;;;1.15;;
54959;SDS011;40860;51.710;8.736;2023-07-29T12:00:04;1.60;;;1.50;;
54959;SDS011;40860;51.710;8.736;2023-07-29T12:04:11;1.67;;;1.58;;
54959;SDS011;40860;51.710;8.736;2023-07-29T12:08:15;1.48;;;1.30;;
54959;SDS011;40860;51.710;8.736;2023-07-29T12:12:18;1.35;;;1.25;;
54959;SDS011;40860;51.710;8.736;2023-07-29T12:16:22;2.35;;;2.25;;
54959;SDS011;40860;51.710;8.736;2023-07-29T12:20:25;1.45;;;1.20;;
54959;SDS011;40860;51.710;8.736;2023-07-29T12:24:29;1.63;;;1.52;;
54959;SDS011;40860;51.710;8.736;2023-07-29T12:28:32;1.30;;;1.30;;
54959;SDS011;40860;51.710;8.736;2023-07-29T12:32:44;1.52;;;1.42;;
54959;SDS011;40860;51.710;8.736;2023-07-29T12:36:48;1.75;;;1.33;;
54959;SDS011;40860;51.710;8.736;2023-07-29T12:40:52;2.00;;;1.40;;
54959;SDS011;40860;51.710;8.736;2023-07-29T12:44:55;2.47;;;1.77;;
54959;SDS011;40860;51.710;8.736;2023-07-29T12:48:59;2.40;;;2.20;;
54959;SDS011;40860;51.710;8.736;2023-07-29T12:53:02;1.70;;;1.60;;
54959;SDS011;40860;51.710;8.736;2023-07-29T12:57:06;1.60;;;1.50;;
54959;SDS011;40860;51.710;8.736;2023-07-29T13:01:09;1.50;;;1.40;;
54959;SDS011;40860;51.710;8.736;2023-07-29T13:05:16;1.60;;;1.50;;
54959;SDS011;40860;51.710;8.736;2023-07-29T13:09:19;1.60;;;1.50;;
54959;SDS011;40860;51.710;8.736;2023-07-29T13:13:22;2.78;;;1.50;;
54959;SDS011;40860;51.710;8.736;2023-07-29T13:17:25;1.27;;;1.20;;
54959;SDS011;40860;51.710;8.736;2023-07-29T13:21:29;1.40;;;1.30;;
54959;SDS011;40860;51.710;8.736;2023-07-29T13:25:32;2.22;;;1.80;;
54959;SDS011;40860;51.710;8.736;2023-07-29T13:29:35;2.70;;;1.90;;
54959;SDS011;40860;51.710;8.736;2023-07-29T13:33:38;2.15;;;1.70;;
54959;SDS011;40860;51.710;8.736;2023-07-29T13:37:42;1.98;;;1.75;;
54959;SDS011;40860;51.710;8.736;2023-07-29T13:41:45;2.17;;;1.67;;
54959;SDS011;40860;51.710;8.736;2023-07-29T13:45:48;2.20;;;2.00;;
54959;SDS011;40860;51.710;8.736;2023-07-29T13:49:51;1.88;;;1.70;;
54959;SDS011;40860;51.710;8.736;2023-07-29T13:53:55;1.70;;;1.60;;
54959;SDS011;40860;51.710;8.736;2023-07-29T13:57:58;1.70;;;1.48;;
54959;SDS011;40860;51.710;8.736;2023-07-29T14:02:01;1.25;;;1.20;;
54959;SDS011;40860;51.710;8.736;2023-07-29T14:06:04;1.60;;;1.50;;
54959;SDS011;40860;51.710;8.736;2023-07-29T14:10:09;2.10;;;2.00;;
54959;SDS011;40860;51.710;8.736;2023-07-29T14:14:12;2.92;;;2.72;;
54959;SDS011;40860;51.710;8.736;2023-07-29T14:18:14;2.20;;;2.10;;
54959;SDS011;40860;51.710;8.736;2023-07-29T14:22:17;2.38;;;1.63;;
54959;SDS011;40860;51.710;8.736;2023-07-29T14:26:22;2.22;;;2.08;;
54959;SDS011;40860;51.710;8.736;2023-07-29T14:30:24;1.92;;;1.83;;
54959;SDS011;40860;51.710;8.736;2023-07-29T14:34:27;4.32;;;3.20;;
54959;SDS011;40860;51.710;8.736;2023-07-29T14:38:30;1.90;;;1.67;;
54959;SDS011;40860;51.710;8.736;2023-07-29T14:42:35;1.70;;;1.60;;
54959;SDS011;40860;51.710;8.736;2023-07-29T14:46:37;1.75;;;1.65;;
54959;SDS011;40860;51.710;8.736;2023-07-29T14:50:43;1.55;;;1.45;;
54959;SDS011;40860;51.710;8.736;2023-07-29T14:54:46;1.63;;;1.48;;
54959;SDS011;40860;51.710;8.736;2023-07-29T14:58:50;2.13;;;1.92;;
54959;SDS011;40860;51.710;8.736;2023-07-29T15:02:54;2.20;;;1.75;;
54959;SDS011;40860;51.710;8.736;2023-07-29T15:06:57;1.50;;;1.40;;
54959;SDS011;40860;51.710;8.736;2023-07-29T15:11:01;1.50;;;1.40;;
54959;SDS011;40860;51.710;8.736;2023-07-29T15:15:07;1.75;;;1.65;;
54959;SDS011;40860;51.710;8.736;2023-07-29T15:19:10;1.55;;;1.45;;
54959;SDS011;40860;51.710;8.736;2023-07-29T15:23:18;1.80;;;1.70;;
54959;SDS011;40860;51.710;8.736;2023-07-29T15:27:21;4.00;;;2.78;;
54959;SDS011;40860;51.710;8.736;2023-07-29T15:31:26;1.73;;;1.63;;
54959;SDS011;40860;51.710;8.736;2023-07-29T15:35:29;3.63;;;1.83;;
54959;SDS011;40860;51.710;8.736;2023-07-29T15:39:32;3.13;;;1.80;;
54959;SDS011;40860;51.710;8.736;2023-07-29T15:43:35;2.10;;;1.67;;
54959;SDS011;40860;51.710;8.736;2023-07-29T15:47:39;1.58;;;1.40;;
54959;SDS011;40860;51.710;8.736;2023-07-29T15:51:42;2.15;;;1.98;;
54959;SDS011;40860;51.710;8.736;2023-07-29T15:55:45;2.03;;;1.70;;
54959;SDS011;40860;51.710;8.736;2023-07-29T15:59:54;2.10;;;1.83;;
54959;SDS011;40860;51.710;8.736;2023-07-29T16:04:20;5.03;;;1.50;;
54959;SDS011;40860;51.710;8.736;2023-07-29T16:08:24;4.13;;;1.60;;
54959;SDS011;40860;51.710;8.736;2023-07-29T16:12:26;1.95;;;1.27;;
54959;SDS011;40860;51.710;8.736;2023-07-29T16:16:30;3.03;;;1.40;;
54959;SDS011;40860;51.710;8.736;2023-07-29T16:20:34;3.22;;;1.30;;
54959;SDS011;40860;51.710;8.736;2023-07-29T16:24:37;5.68;;;2.10;;
54959;SDS011;40860;51.710;8.736;2023-07-29T16:28:40;2.85;;;1.30;;
54959;SDS011;40860;51.710;8.736;2023-07-29T16:32:44;3.40;;;1.80;;
54959;SDS011;40860;51.710;8.736;2023-07-29T16:36:48;1.42;;;1.00;;
54959;SDS011;40860;51.710;8.736;2023-07-29T16:40:51;2.63;;;1.45;;
54959;SDS011;40860;51.710;8.736;2023-07-29T16:45:11;2.90;;;1.80;;
54959;SDS011;40860;51.710;8.736;2023-07-29T16:49:14;3.35;;;1.40;;
54959;SDS011;40860;51.710;8.736;2023-07-29T16:53:24;8.85;;;6.57;;
54959;SDS011;40860;51.710;8.736;2023-07-29T16:57:27;2.20;;;1.65;;
54959;SDS011;40860;51.710;8.736;2023-07-29T17:01:30;1.90;;;1.55;;
54959;SDS011;40860;51.710;8.736;2023-07-29T17:05:33;1.58;;;1.48;;
54959;SDS011;40860;51.710;8.736;2023-07-29T17:09:37;2.40;;;1.55;;
54959;SDS011;40860;51.710;8.736;2023-07-29T17:13:40;1.92;;;1.60;;
54959;SDS011;40860;51.710;8.736;2023-07-29T17:17:44;2.83;;;1.60;;
54959;SDS011;40860;51.710;8.736;2023-07-29T17:21:48;2.03;;;1.60;;
54959;SDS011;40860;51.710;8.736;2023-07-29T17:25:52;1.35;;;1.10;;
54959;SDS011;40860;51.710;8.736;2023-07-29T17:29:55;1.60;;;1.40;;
54959;SDS011;40860;51.710;8.736;2023-07-29T17:33:58;2.53;;;1.48;;
54959;SDS011;40860;51.710;8.736;2023-07-29T17:38:01;2.47;;;1.17;;
54959;SDS011;40860;51.710;8.736;2023-07-29T17:42:14;1.45;;;1.35;;
54959;SDS011;40860;51.710;8.736;2023-07-29T17:46:17;1.40;;;1.30;;
54959;SDS011;40860;51.710;8.736;2023-07-29T17:50:20;1.60;;;1.50;;
54959;SDS011;40860;51.710;8.736;2023-07-29T17:54:24;1.45;;;1.35;;
54959;SDS011;40860;51.710;8.736;2023-07-29T17:58:28;1.30;;;1.20;;
54959;SDS011;40860;51.710;8.736;2023-07-29T18:02:31;2.25;;;1.38;;
54959;SDS011;40860;51.710;8.736;2023-07-29T18:06:34;3.95;;;1.52;;
54959;SDS011;40860;51.710;8.736;2023-07-29T18:10:38;1.70;;;1.60;;
54959;SDS011;40860;51.710;8.736;2023-07-29T18:14:43;1.63;;;1.50;;
54959;SDS011;40860;51.710;8.736;2023-07-29T18:18:47;1.58;;;1.38;;
54959;SDS011;40860;51.710;8.736;2023-07-29T18:22:50;1.70;;;1.60;;
54959;SDS011;40860;51.710;8.736;2023-07-29T18:26:54;2.80;;;2.30;;
54959;SDS011;40860;51.710;8.736;2023-07-29T18:30:58;4.03;;;1.85;;
54959;SDS011;40860;51.710;8.736;2023-07-29T18:35:01;3.33;;;1.30;;
54959;SDS011;40860;51.710;8.736;2023-07-29T18:39:05;2.50;;;1.63;;
54959;SDS011;40860;51.710;8.736;2023-07-29T18:43:08;2.70;;;2.22;;
54959;SDS011;40860;51.710;8.736;2023-07-29T18:47:13;2.95;;;1.55;;
54959;SDS011;40860;51.710;8.736;2023-07-29T18:51:16;1.83;;;1.40;;
54959;SDS011;40860;51.710;8.736;2023-07-29T18:55:18;2.47;;;2.28;;
54959;SDS011;40860;51.710;8.736;2023-07-29T18:59:23;4.00;;;1.83;;
54959;SDS011;40860;51.710;8.736;2023-07-29T19:03:27;2.17;;;1.95;;
54959;SDS011;40860;51.710;8.736;2023-07-29T19:07:31;2.25;;;2.05;;
54959;SDS011;40860;51.710;8.736;2023-07-29T19:11:36;2.40;;;1.40;;
54959;SDS011;40860;51.710;8.736;2023-07-29T19:15:39;2.45;;;2.25;;
54959;SDS011;40860;51.710;8.736;2023-07-29T19:19:44;2.28;;;1.90;;
54959;SDS011;40860;51.710;8.736;2023-07-29T19:23:48;3.92;;;1.83;;
54959;SDS011;40860;51.710;8.736;2023-07-29T19:27:52;4.18;;;1.88;;
54959;SDS011;40860;51.710;8.736;2023-07-29T19:31:55;1.90;;;1.50;;
54959;SDS011;40860;51.710;8.736;2023-07-29T19:36:00;2.58;;;1.80;;
54959;SDS011;40860;51.710;8.736;2023-07-29T19:40:06;3.67;;;1.90;;
54959;SDS011;40860;51.710;8.736;2023-07-29T19:44:10;2.20;;;2.10;;
54959;SDS011;40860;51.710;8.736;2023-07-29T19:48:23;2.55;;;1.92;;
54959;SDS011;40860;51.710;8.736;2023-07-29T19:52:27;2.22;;;2.10;;
54959;SDS011;40860;51.710;8.736;2023-07-29T19:56:30;2.63;;;2.10;;
54959;SDS011;40860;51.710;8.736;2023-07-29T20:00:34;3.05;;;2.17;;
54959;SDS011;40860;51.710;8.736;2023-07-29T20:04:36;2.80;;;2.40;;
54959;SDS011;40860;51.710;8.736;2023-07-29T20:08:41;2.92;;;2.40;;
54959;SDS011;40860;51.710;8.736;2023-07-29T20:12:44;3.35;;;2.75;;
54959;SDS011;40860;51.710;8.736;2023-07-29T20:16:47;6.70;;;5.68;;
54959;SDS011;40860;51.710;8.736;2023-07-29T20:20:50;16.92;;;12.50;;
54959;SDS011;40860;51.710;8.736;2023-07-29T20:24:55;11.48;;;9.57;;
54959;SDS011;40860;51.710;8.736;2023-07-29T20:28:58;7.53;;;6.35;;
54959;SDS011;40860;51.710;8.736;2023-07-29T20:33:01;5.82;;;4.90;;
54959;SDS011;40860;51.710;8.736;2023-07-29T20:37:04;3.78;;;3.47;;
54959;SDS011;40860;51.710;8.736;2023-07-29T20:41:09;3.55;;;3.05;;
54959;SDS011;40860;51.710;8.736;2023-07-29T20:45:12;3.38;;;2.40;;
54959;SDS011;40860;51.710;8.736;2023-07-29T20:49:15;2.65;;;2.15;;
54959;SDS011;40860;51.710;8.736;2023-07-29T20:53:18;3.35;;;2.83;;
54959;SDS011;40860;51.710;8.736;2023-07-29T20:57:23;3.13;;;2.08;;
54959;SDS011;40860;51.710;8.736;2023-07-29T21:01:26;2.22;;;2.00;;
54959;SDS011;40860;51.710;8.736;2023-07-29T21:05:32;2.70;;;2.13;;
54959;SDS011;40860;51.710;8.736;2023-07-29T21:09:35;2.60;;;2.40;;
54959;SDS011;40860;51.710;8.736;2023-07-29T21:13:40;4.63;;;2.40;;
54959;SDS011;40860;51.710;8.736;2023-07-29T21:17:43;3.25;;;2.10;;
54959;SDS011;40860;51.710;8.736;2023-07-29T21:21:46;2.75;;;2.10;;
54959;SDS011;40860;51.710;8.736;2023-07-29T21:25:49;2.75;;;2.30;;
54959;SDS011;40860;51.710;8.736;2023-07-29T21:29:55;3.03;;;2.15;;
54959;SDS011;40860;51.710;8.736;2023-07-29T21:33:58;2.42;;;2.30;;
54959;SDS011;40860;51.710;8.736;2023-07-29T21:38:02;2.70;;;2.50;;
54959;SDS011;40860;51.710;8.736;2023-07-29T21:42:25;2.28;;;2.10;;
54959;SDS011;40860;51.710;8.736;2023-07-29T21:46:29;2.97;;;2.13;;
54959;SDS011;40860;51.710;8.736;2023-07-29T21:50:33;4.63;;;2.80;;
54959;SDS011;40860;51.710;8.736;2023-07-29T21:54:36;4.00;;;2.60;;
54959;SDS011;40860;51.710;8.736;2023-07-29T21:58:39;3.75;;;2.50;;
54959;SDS011;40860;51.710;8.736;2023-07-29T22:02:43;3.25;;;2.95;;
54959;SDS011;40860;51.710;8.736;2023-07-29T22:06:46;2.80;;;2.60;;
54959;SDS011;40860;51.710;8.736;2023-07-29T22:10:49;2.58;;;2.38;;
54959;SDS011;40860;51.710;8.736;2023-07-29T22:14:52;2.63;;;2.42;;
54959;SDS011;40860;51.710;8.736;2023-07-29T22:18:57;2.22;;;2.10;;
54959;SDS011;40860;51.710;8.736;2023-07-29T22:23:00;3.88;;;2.60;;
54959;SDS011;40860;51.710;8.736;2023-07-29T22:27:03;4.90;;;2.15;;
54959;SDS011;40860;51.710;8.736;2023-07-29T22:31:07;2.80;;;2.60;;
54959;SDS011;40860;51.710;8.736;2023-07-29T22:35:12;3.10;;;2.08;;
54959;SDS011;40860;51.710;8.736;2023-07-29T22:39:15;2.38;;;2.28;;
54959;SDS011;40860;51.710;8.736;2023-07-29T22:43:18;2.30;;;2.10;;
54959;SDS011;40860;51.710;8.736;2023-07-29T22:47:21;2.58;;;2.38;;
54959;SDS011;40860;51.710;8.736;2023-07-29T22:51:26;4.22;;;2.47;;
54959;SDS011;40860;51.710;8.736;2023-07-29T22:55:29;2.33;;;2.20;;
54959;SDS011;40860;51.710;8.736;2023-07-29T22:59:32;2.75;;;2.28;;
54959;SDS011;40860;51.710;8.736;2023-07-29T23:03:35;2.50;;;2.25;;
54959;SDS011;40860;51.710;8.736;2023-07-29T23:07:40;2.67;;;2.20;;
54959;SDS011;40860;51.710;8.736;2023-07-29T23:11:43;2.63;;;2.00;;
54959;SDS011;40860;51.710;8.736;2023-07-29T23:15:46;3.10;;;2.63;;
54959;SDS011;40860;51.710;8.736;2023-07-29T23:19:49;3.70;;;2.92;;
54959;SDS011;40860;51.710;8.736;2023-07-29T23:23:53;4.60;;;3.00;;
54959;SDS011;40860;51.710;8.736;2023-07-29T23:27:56;5.90;;;2.88;;
54959;SDS011;40860;51.710;8.736;2023-07-29T23:31:59;4.95;;;2.70;;
54959;SDS011;40860;51.710;8.736;2023-07-29T23:36:03;6.40;;;2.70;;
54959;SDS011;40860;51.710;8.736;2023-07-29T23:40:08;3.28;;;2.90;;
54959;SDS011;40860;51.710;8.736;2023-07-29T23:44:12;4.28;;;3.50;;
54959;SDS011;40860;51.710;8.736;2023-07-29T23:48:15;4.70;;;3.40;;
54959;SDS011;40860;51.710;8.736;2023-07-29T23:52:18;3.47;;;3.22;;
54959;SDS011;40860;51.710;8.736;2023-07-29T23:56:22;3.72;;;3.42;;
